Time;durP1;ratioP1;P1;durP2;ratioP2;P2;SDS_P1;SDS_P2;PMS_P1;PMS_P2;Temp;Humidity;BMP_temperature;BMP_pressure;BME280_temperature;BME280_humidity;BME280_pressure;Samples;Min_cycle;Max_cycle;Signal;HPM_P1;HPM_P2
2022/06/15 00:01:27;;;;;;;1.30;0.60;;;25.90;91.20;;;;;;5066395;28;19931;-59
2022/06/15 00:03:55;;;;;;;0.30;0.30;;;25.90;91.10;;;;;;5066370;28;20040;-60
2022/06/15 00:06:25;;;;;;;0.63;0.63;;;25.90;91.30;;;;;;5061311;28;20061;-63
2022/06/15 00:08:56;;;;;;;0.50;0.50;;;25.80;82.60;;;;;;5066460;28;20059;-60
2022/06/15 00:11:33;;;;;;;0.32;0.32;;;25.40;77.80;;;;;;5066426;28;20044;-62
2022/06/15 00:14:03;;;;;;;0.52;0.52;;;25.00;74.50;;;;;;5065169;28;20078;-65
2022/06/15 00:16:31;;;;;;;11.05;0.98;;;24.80;73.80;;;;;;5057483;28;20049;-63
2022/06/15 00:18:59;;;;;;;;;;;24.60;72.00;;;;;;5049607;28;20041;-61
2022/06/15 00:21:26;;;;;;;0.40;0.40;;;24.40;71.10;;;;;;5067544;28;20672;-63
2022/06/15 00:23:54;;;;;;;1.25;1.15;;;24.30;70.90;;;;;;5068278;28;20515;-64
2022/06/15 00:26:21;;;;;;;0.40;0.40;;;24.20;70.80;;;;;;5064613;28;20045;-63
2022/06/15 00:28:50;;;;;;;0.55;0.55;;;24.10;70.50;;;;;;5069259;28;20044;-61
2022/06/15 00:31:19;;;;;;;0.57;0.57;;;24.10;70.50;;;;;;5048088;28;20412;-61
2022/06/15 00:33:47;;;;;;;0.38;0.38;;;24.10;70.40;;;;;;5059128;28;20325;-61
2022/06/15 00:36:18;;;;;;;1.00;0.75;;;24.10;70.40;;;;;;5065820;28;20428;-59
2022/06/15 00:38:48;;;;;;;0.63;0.60;;;24.10;70.60;;;;;;5060026;28;20063;-61
2022/06/15 00:41:22;;;;;;;0.60;0.60;;;24.20;70.50;;;;;;5062645;28;20052;-61
2022/06/15 00:43:57;;;;;;;1.55;0.65;;;24.20;70.60;;;;;;5062489;28;20063;-62
2022/06/15 00:46:37;;;;;;;3.20;1.83;;;24.20;70.40;;;;;;5068923;28;20065;-63
2022/06/15 00:49:11;;;;;;;0.40;0.40;;;24.20;70.50;;;;;;5060339;28;20060;-64
2022/06/15 00:51:39;;;;;;;1.85;1.20;;;24.20;70.20;;;;;;5056773;28;20045;-63
2022/06/15 00:54:07;;;;;;;0.68;0.68;;;24.10;69.80;;;;;;5060019;28;20041;-63
2022/06/15 00:56:37;;;;;;;1.40;1.30;;;24.10;69.70;;;;;;5086711;28;20500;-62
2022/06/15 00:59:13;;;;;;;1.00;0.75;;;24.10;69.90;;;;;;5059953;28;20044;-63
2022/06/15 01:01:41;;;;;;;1.27;0.90;;;24.00;70.00;;;;;;5059137;28;20052;-61
2022/06/15 01:04:09;;;;;;;0.50;0.50;;;24.00;70.40;;;;;;5060565;28;20040;-62
2022/06/15 01:07:01;;;;;;;0.40;0.40;;;24.00;70.50;;;;;;5056485;28;20041;-60
2022/06/15 01:09:31;;;;;;;0.52;0.52;;;24.00;70.60;;;;;;5064959;28;20387;-61
2022/06/15 01:12:12;;;;;;;0.57;0.57;;;24.00;70.50;;;;;;5064286;28;20391;-62
2022/06/15 01:14:53;;;;;;;0.40;0.40;;;23.90;70.70;;;;;;5059609;28;20048;-60
2022/06/15 01:17:38;;;;;;;1.75;1.15;;;23.90;71.00;;;;;;5061919;28;20056;-62
2022/06/15 01:20:18;;;;;;;0.43;0.43;;;23.90;71.10;;;;;;5054461;28;20041;-62
2022/06/15 01:23:08;;;;;;;0.30;0.30;;;23.90;70.90;;;;;;5059295;28;20045;-61
2022/06/15 01:26:00;;;;;;;0.77;0.55;;;23.90;70.80;;;;;;5060662;28;20052;-60
2022/06/15 01:28:46;;;;;;;1.00;0.70;;;23.80;70.70;;;;;;5064946;28;20064;-60
2022/06/15 01:31:41;;;;;;;0.52;0.52;;;23.80;70.90;;;;;;5065154;28;20822;-59
2022/06/15 01:34:12;;;;;;;2.00;0.70;;;23.70;70.80;;;;;;5081969;28;20592;-60
2022/06/15 01:37:08;;;;;;;0.65;0.65;;;23.70;70.60;;;;;;5068956;28;20487;-61
2022/06/15 01:40:05;;;;;;;2.17;0.90;;;23.70;71.00;;;;;;5043936;28;20059;-61
2022/06/15 01:42:46;;;;;;;0.85;0.85;;;23.70;71.10;;;;;;5059174;28;20147;-59
2022/06/15 01:45:19;;;;;;;1.45;0.75;;;23.60;70.80;;;;;;5045673;28;20048;-61
2022/06/15 01:47:49;;;;;;;0.30;0.30;;;23.60;70.80;;;;;;5047214;28;20045;-59
2022/06/15 01:50:21;;;;;;;0.63;0.63;;;23.60;71.10;;;;;;5048444;28;20083;-63
2022/06/15 01:52:56;;;;;;;0.60;0.60;;;23.60;71.30;;;;;;5056855;28;20048;-61
2022/06/15 01:55:27;;;;;;;0.45;0.45;;;23.50;71.20;;;;;;5053523;28;20551;-62
2022/06/15 01:57:59;;;;;;;0.40;0.40;;;23.50;71.50;;;;;;5057876;28;20405;-62
2022/06/15 02:00:27;;;;;;;0.68;0.55;;;23.50;71.10;;;;;;5077009;28;20059;-61
2022/06/15 02:03:13;;;;;;;;;;;23.50;71.70;;;;;;5075705;28;20516;-62
2022/06/15 02:05:53;;;;;;;1.25;0.65;;;23.50;72.00;;;;;;5051945;28;19968;-61
2022/06/15 02:08:37;;;;;;;0.40;0.40;;;23.50;72.00;;;;;;5058864;28;20048;-60
2022/06/15 02:11:31;;;;;;;0.70;0.70;;;23.40;71.80;;;;;;5061859;28;20056;-62
2022/06/15 02:14:05;;;;;;;0.63;0.63;;;23.40;71.90;;;;;;5078714;28;20048;-62
2022/06/15 02:16:41;;;;;;;1.13;0.93;;;23.40;72.20;;;;;;5058965;28;20051;-60
2022/06/15 02:19:15;;;;;;;1.00;0.70;;;23.30;72.10;;;;;;5065567;28;20048;-59
2022/06/15 02:21:46;;;;;;;0.80;0.80;;;23.30;72.30;;;;;;5057677;28;20040;-61
2022/06/15 02:24:15;;;;;;;1.35;1.10;;;23.30;72.30;;;;;;5060290;28;20052;-60
2022/06/15 02:26:42;;;;;;;2.35;1.08;;;23.20;72.20;;;;;;5060560;28;20044;-61
2022/06/15 02:29:24;;;;;;;3.63;1.25;;;23.20;72.40;;;;;;5069347;28;20123;-63
2022/06/15 02:31:56;;;;;;;1.42;1.33;;;23.30;72.50;;;;;;5079952;28;20539;-61
2022/06/15 02:34:26;;;;;;;1.40;0.95;;;23.20;72.40;;;;;;5074520;28;20067;-60
2022/06/15 02:36:54;;;;;;;0.77;0.77;;;23.20;72.40;;;;;;5049792;28;20045;-63
2022/06/15 02:39:23;;;;;;;1.00;0.93;;;23.20;72.50;;;;;;5059418;28;20053;-63
2022/06/15 02:41:58;;;;;;;0.50;0.50;;;23.20;72.70;;;;;;5062219;28;20049;-62
2022/06/15 02:44:30;;;;;;;1.25;0.90;;;23.10;72.70;;;;;;5050764;28;20052;-61
2022/06/15 02:46:59;;;;;;;0.93;0.93;;;23.10;72.80;;;;;;5041161;28;20495;-63
2022/06/15 02:49:26;;;;;;;1.45;1.00;;;23.00;73.30;;;;;;5058992;28;20508;-62
2022/06/15 02:51:59;;;;;;;0.50;0.50;;;23.00;73.40;;;;;;5045951;28;20075;-60
2022/06/15 02:54:34;;;;;;;0.43;0.43;;;23.00;73.70;;;;;;5054329;28;20044;-62
2022/06/15 02:57:11;;;;;;;0.30;0.30;;;23.00;73.00;;;;;;5057357;28;20043;-62
2022/06/15 02:59:40;;;;;;;2.42;1.13;;;23.00;72.40;;;;;;5051897;28;20060;-61
2022/06/15 03:02:08;;;;;;;1.25;1.02;;;23.00;72.30;;;;;;5075067;28;20045;-60
2022/06/15 03:04:42;;;;;;;0.30;0.30;;;23.00;71.70;;;;;;5067070;28;20399;-58
2022/06/15 03:07:11;;;;;;;0.85;0.65;;;23.00;71.60;;;;;;5048083;28;20080;-62
2022/06/15 03:09:40;;;;;;;0.43;0.43;;;22.90;71.80;;;;;;5073762;28;21854;-61
2022/06/15 03:12:10;;;;;;;0.98;0.82;;;23.00;71.70;;;;;;5079094;28;20335;-59
2022/06/15 03:14:38;;;;;;;0.50;0.50;;;23.00;72.10;;;;;;5059115;28;20044;-62
2022/06/15 03:17:11;;;;;;;0.60;0.60;;;23.00;71.70;;;;;;5042452;28;20037;-60
2022/06/15 03:19:53;;;;;;;1.05;0.93;;;23.00;71.80;;;;;;5057029;28;20056;-60
2022/06/15 03:22:21;;;;;;;1.25;0.70;;;22.90;71.70;;;;;;5064223;28;20425;-60
2022/06/15 03:24:55;;;;;;;0.40;0.40;;;22.90;71.50;;;;;;5071727;28;20049;-61
2022/06/15 03:27:22;;;;;;;5.63;1.27;;;22.90;72.30;;;;;;5066538;28;20052;-62
2022/06/15 03:29:51;;;;;;;0.50;0.50;;;22.90;71.80;;;;;;5064975;28;20047;-61
2022/06/15 03:32:23;;;;;;;0.55;0.55;;;22.90;72.00;;;;;;5057880;28;20119;-62
2022/06/15 03:34:57;;;;;;;0.77;0.77;;;22.90;71.70;;;;;;5058850;28;20045;-61
2022/06/15 03:37:24;;;;;;;0.47;0.47;;;22.90;71.90;;;;;;5047011;28;20060;-61
2022/06/15 03:40:05;;;;;;;0.30;0.30;;;22.80;71.90;;;;;;5062861;28;20048;-60
2022/06/15 03:42:36;;;;;;;0.60;0.60;;;22.90;72.00;;;;;;5050843;28;20053;-62
2022/06/15 03:45:04;;;;;;;0.40;0.40;;;22.80;71.80;;;;;;5055567;28;20052;-61
2022/06/15 03:47:35;;;;;;;0.30;0.30;;;22.80;72.00;;;;;;5067498;28;20061;-61
2022/06/15 03:50:03;;;;;;;;;;;22.90;72.20;;;;;;5061661;28;20502;-62
2022/06/15 03:52:30;;;;;;;1.08;1.00;;;22.90;72.10;;;;;;5058568;28;19946;-60
2022/06/15 03:54:59;;;;;;;1.00;1.00;;;22.90;71.70;;;;;;5059896;28;20048;-62
2022/06/15 03:57:27;;;;;;;0.95;0.77;;;22.90;71.80;;;;;;5052728;28;20067;-62
2022/06/15 03:59:56;;;;;;;0.20;0.20;;;22.80;71.90;;;;;;5061932;28;20370;-60
2022/06/15 04:02:42;;;;;;;0.40;0.40;;;22.90;71.80;;;;;;5057728;28;20058;-62
2022/06/15 04:05:21;;;;;;;0.93;0.88;;;22.80;71.80;;;;;;5067710;28;20049;-59
2022/06/15 04:10:35;;;;;;;1.45;1.02;;;22.80;72.00;;;;;;5076014;28;20048;-61
2022/06/15 04:13:06;;;;;;;0.50;0.50;;;22.80;72.20;;;;;;5069087;28;20045;-60
2022/06/15 04:15:34;;;;;;;0.57;0.57;;;22.80;72.40;;;;;;5046615;28;20059;-61
2022/06/15 04:18:02;;;;;;;;;;;22.80;72.40;;;;;;5052838;28;20048;-63
2022/06/15 04:20:41;;;;;;;1.17;1.05;;;22.80;72.80;;;;;;5067790;28;19920;-61
2022/06/15 04:23:22;;;;;;;1.65;1.23;;;22.80;72.90;;;;;;5051265;28;20052;-57
2022/06/15 04:25:58;;;;;;;0.93;0.82;;;22.80;73.10;;;;;;5064472;28;20052;-61
2022/06/15 04:28:46;;;;;;;1.15;0.73;;;22.70;73.90;;;;;;5062432;28;20045;-62
2022/06/15 04:31:17;;;;;;;0.77;0.77;;;22.70;73.20;;;;;;5055904;28;20531;-61
2022/06/15 04:33:46;;;;;;;1.55;1.33;;;22.70;73.50;;;;;;5049718;28;20047;-61
2022/06/15 04:36:15;;;;;;;0.73;0.60;;;22.70;73.20;;;;;;5051243;28;20367;-63
2022/06/15 04:38:55;;;;;;;0.57;0.57;;;22.80;73.10;;;;;;5064751;28;20282;-62
2022/06/15 04:41:30;;;;;;;0.57;0.57;;;22.80;73.20;;;;;;5051651;28;20064;-61
2022/06/15 04:43:58;;;;;;;0.40;0.40;;;22.80;73.20;;;;;;5035539;28;20417;-60
2022/06/15 04:46:25;;;;;;;;;;;22.80;73.30;;;;;;5059185;28;20059;-60
2022/06/15 04:48:55;;;;;;;0.50;0.50;;;22.80;72.80;;;;;;5079033;28;20319;-62
2022/06/15 04:51:26;;;;;;;0.60;0.60;;;22.80;72.70;;;;;;5051121;28;20415;-62
2022/06/15 04:53:57;;;;;;;1.35;0.88;;;22.80;73.20;;;;;;5049407;28;20052;-63
2022/06/15 04:56:25;;;;;;;0.65;0.65;;;22.90;73.30;;;;;;5080825;28;20512;-62
2022/06/15 04:58:53;;;;;;;0.40;0.40;;;22.90;73.20;;;;;;5044982;28;20056;-61
2022/06/15 05:01:21;;;;;;;0.50;0.50;;;22.80;73.10;;;;;;5068365;28;20060;-61
2022/06/15 05:03:48;;;;;;;0.65;0.65;;;22.80;73.50;;;;;;5060481;28;20049;-61
2022/06/15 05:06:17;;;;;;;3.10;0.93;;;22.90;73.70;;;;;;5058278;28;20057;-61
2022/06/15 05:08:45;;;;;;;1.50;1.33;;;22.90;73.70;;;;;;5057275;28;20052;-61
2022/06/15 05:11:12;;;;;;;0.68;0.68;;;22.90;74.70;;;;;;5084253;28;20070;-62
2022/06/15 05:13:40;;;;;;;1.05;1.05;;;23.10;76.50;;;;;;5061824;28;20488;-61
2022/06/15 05:16:08;;;;;;;0.82;0.70;;;23.40;77.30;;;;;;5068190;28;20052;-67
2022/06/15 05:18:35;;;;;;;2.20;1.08;;;23.60;77.40;;;;;;5076144;28;20052;-64
2022/06/15 05:21:10;;;;;;;0.30;0.30;;;23.80;77.40;;;;;;5077555;28;20059;-65
2022/06/15 05:23:38;;;;;;;2.13;1.33;;;23.90;77.40;;;;;;5056661;28;20048;-65
2022/06/15 05:26:12;;;;;;;1.25;1.15;;;23.90;77.80;;;;;;5049717;28;20412;-64
2022/06/15 05:28:46;;;;;;;0.65;0.65;;;24.00;78.00;;;;;;5074091;28;20052;-64
2022/06/15 05:31:20;;;;;;;0.70;0.70;;;24.00;78.30;;;;;;5044066;28;20056;-65
2022/06/15 05:33:55;;;;;;;0.60;0.60;;;24.10;78.60;;;;;;5066066;28;20389;-67
2022/06/15 05:36:27;;;;;;;0.30;0.30;;;24.10;78.60;;;;;;5076577;28;20040;-64
2022/06/15 05:38:55;;;;;;;3.50;1.63;;;24.10;79.30;;;;;;5050917;28;20051;-66
2022/06/15 05:41:24;;;;;;;0.50;0.50;;;24.20;78.90;;;;;;5030156;28;20049;-64
2022/06/15 05:44:07;;;;;;;1.10;0.68;;;24.10;78.30;;;;;;5082633;28;20041;-65
2022/06/15 05:46:40;;;;;;;1.38;1.15;;;24.10;78.20;;;;;;5076854;28;20055;-68
2022/06/15 05:49:30;;;;;;;1.95;0.88;;;24.10;78.40;;;;;;5067183;28;20059;-57
2022/06/15 05:51:57;;;;;;;4.43;2.15;;;24.10;79.00;;;;;;5054379;28;20037;-64
2022/06/15 05:54:26;;;;;;;0.60;0.60;;;24.20;79.20;;;;;;5059212;28;20048;-65
2022/06/15 05:56:54;;;;;;;2.10;0.77;;;24.20;79.30;;;;;;5072622;28;20059;-65
2022/06/15 05:59:21;;;;;;;0.60;0.60;;;24.30;79.50;;;;;;5052699;28;20047;-64
2022/06/15 06:01:49;;;;;;;4.28;1.15;;;24.30;79.40;;;;;;5065344;28;20451;-64
2022/06/15 06:04:18;;;;;;;2.53;1.27;;;24.30;79.00;;;;;;5063936;28;20067;-63
2022/06/15 06:06:48;;;;;;;0.65;0.57;;;24.30;79.00;;;;;;5063291;28;20063;-59
2022/06/15 06:09:15;;;;;;;0.30;0.30;;;24.30;79.00;;;;;;5064414;28;20048;-61
2022/06/15 06:11:42;;;;;;;0.38;0.38;;;24.30;78.90;;;;;;5070191;28;20499;-63
2022/06/15 06:14:10;;;;;;;0.77;0.77;;;24.30;78.80;;;;;;5069990;28;20043;-63
2022/06/15 06:16:37;;;;;;;0.40;0.40;;;24.30;78.60;;;;;;5067527;28;20318;-60
2022/06/15 06:19:05;;;;;;;1.27;0.65;;;24.20;78.30;;;;;;5067470;28;20499;-63
2022/06/15 06:21:32;;;;;;;0.95;0.85;;;24.20;78.00;;;;;;5049091;28;20067;-61
2022/06/15 06:23:59;;;;;;;0.45;0.45;;;24.20;77.60;;;;;;5058979;28;20057;-62
2022/06/15 06:26:30;;;;;;;1.55;1.08;;;24.20;77.30;;;;;;5054708;28;20396;-59
2022/06/15 06:28:59;;;;;;;3.30;0.65;;;24.10;77.00;;;;;;5072712;28;20045;-62
2022/06/15 06:31:27;;;;;;;0.80;0.80;;;24.10;76.60;;;;;;5069465;28;20072;-61
2022/06/15 06:33:55;;;;;;;0.93;0.68;;;24.10;76.10;;;;;;5061665;28;20676;-62
2022/06/15 06:36:32;;;;;;;;;;;24.20;76.10;;;;;;5059762;28;20048;-62
2022/06/15 06:39:02;;;;;;;0.73;0.73;;;24.20;76.00;;;;;;5061886;28;19932;-62
2022/06/15 06:41:31;;;;;;;1.45;1.10;;;24.30;76.00;;;;;;5061773;28;20052;-62
2022/06/15 06:44:04;;;;;;;0.30;0.30;;;24.30;76.10;;;;;;5059410;28;20499;-62
2022/06/15 06:46:33;;;;;;;1.65;1.13;;;24.30;76.20;;;;;;5061716;28;20048;-62
2022/06/15 06:49:02;;;;;;;0.70;0.70;;;24.30;76.30;;;;;;5050087;28;20048;-61
2022/06/15 06:51:29;;;;;;;0.45;0.45;;;24.30;76.40;;;;;;5053905;28;20052;-61
2022/06/15 06:53:56;;;;;;;0.90;0.57;;;24.30;77.00;;;;;;5048838;28;20060;-61
2022/06/15 06:56:24;;;;;;;1.60;1.08;;;24.40;76.60;;;;;;5067666;28;20052;-63
2022/06/15 06:58:51;;;;;;;0.50;0.50;;;24.30;76.60;;;;;;5053284;28;20041;-63
2022/06/15 07:01:18;;;;;;;0.88;0.88;;;24.40;76.70;;;;;;5064300;28;20052;-61
2022/06/15 07:03:47;;;;;;;1.45;1.10;;;24.40;76.60;;;;;;5067466;28;20056;-61
2022/06/15 07:06:15;;;;;;;0.70;0.70;;;24.40;76.60;;;;;;5066688;28;20568;-63
2022/06/15 07:08:42;;;;;;;0.20;0.20;;;24.40;76.70;;;;;;5064729;28;20057;-61
2022/06/15 07:11:12;;;;;;;0.32;0.32;;;24.40;76.60;;;;;;5062366;28;20040;-63
2022/06/15 07:13:40;;;;;;;0.70;0.70;;;24.40;76.60;;;;;;5053363;28;20052;-62
2022/06/15 07:16:10;;;;;;;3.35;1.23;;;24.50;77.40;;;;;;5052159;28;20060;-62
2022/06/15 07:18:37;;;;;;;0.30;0.30;;;24.50;77.00;;;;;;5059573;28;20052;-60
2022/06/15 07:21:11;;;;;;;0.63;0.63;;;24.40;77.00;;;;;;5057246;28;20044;-61
2022/06/15 07:23:40;;;;;;;1.65;1.25;;;24.50;77.10;;;;;;5059522;28;20500;-58
2022/06/15 07:26:12;;;;;;;11.60;1.85;;;24.50;77.20;;;;;;5058313;28;20051;-61
2022/06/15 07:28:42;;;;;;;0.30;0.30;;;24.50;77.30;;;;;;5050905;28;20040;-59
2022/06/15 07:31:37;;;;;;;1.00;0.75;;;24.50;77.30;;;;;;5055770;28;20041;-58
2022/06/15 07:34:06;;;;;;;0.38;0.38;;;24.50;77.50;;;;;;5045958;28;20894;-56
2022/06/15 07:36:36;;;;;;;0.50;0.50;;;24.50;77.50;;;;;;5056027;28;20048;-62
2022/06/15 07:39:04;;;;;;;0.35;0.35;;;24.50;77.60;;;;;;5050946;28;20049;-58
2022/06/15 07:41:33;;;;;;;0.40;0.40;;;24.60;77.60;;;;;;5064149;28;20048;-56
2022/06/15 07:44:01;;;;;;;0.70;0.68;;;24.60;77.60;;;;;;5050646;28;20053;-62
2022/06/15 07:46:28;;;;;;;0.75;0.60;;;24.60;77.70;;;;;;5070159;28;20067;-60
2022/06/15 07:51:46;;;;;;;0.40;0.40;;;24.60;77.80;;;;;;5050259;28;20052;-62
2022/06/15 07:54:16;;;;;;;1.35;0.95;;;24.60;77.90;;;;;;5051267;28;20049;-59
2022/06/15 07:56:45;;;;;;;1.75;0.93;;;24.60;78.00;;;;;;5056044;28;20052;-60
2022/06/15 07:59:13;;;;;;;1.17;1.08;;;24.60;78.00;;;;;;5050269;28;20291;-61
2022/06/15 08:01:42;;;;;;;0.20;0.20;;;24.60;78.10;;;;;;5058894;28;20431;-63
2022/06/15 08:04:11;;;;;;;0.60;0.60;;;24.70;78.10;;;;;;5031859;28;20512;-60
2022/06/15 08:06:41;;;;;;;0.30;0.30;;;24.60;78.20;;;;;;5067307;28;20060;-56
2022/06/15 08:09:10;;;;;;;0.70;0.70;;;24.70;78.30;;;;;;5055671;28;20514;-57
2022/06/15 08:11:39;;;;;;;0.30;0.30;;;24.70;78.30;;;;;;5063459;28;20047;-60
2022/06/15 08:14:06;;;;;;;0.30;0.30;;;24.70;78.40;;;;;;5060583;28;20053;-58
2022/06/15 08:16:34;;;;;;;0.30;0.30;;;24.70;78.50;;;;;;5066256;28;20056;-61
2022/06/15 08:19:03;;;;;;;0.43;0.43;;;24.70;78.50;;;;;;5058431;28;20567;-58
2022/06/15 08:21:36;;;;;;;0.50;0.50;;;24.70;78.40;;;;;;5033614;28;20551;-61
2022/06/15 08:24:04;;;;;;;0.50;0.50;;;24.70;78.50;;;;;;5055353;28;20077;-60
2022/06/15 08:26:34;;;;;;;;;;;24.70;78.40;;;;;;5051775;28;20052;-58
2022/06/15 08:29:06;;;;;;;0.50;0.50;;;24.70;78.50;;;;;;5071687;28;19927;-56
2022/06/15 08:31:35;;;;;;;0.30;0.30;;;24.80;78.50;;;;;;5056477;28;20389;-64
2022/06/15 08:34:05;;;;;;;0.57;0.52;;;24.80;78.60;;;;;;5055605;28;20040;-64
2022/06/15 08:36:33;;;;;;;0.50;0.50;;;24.80;78.50;;;;;;5048825;28;20045;-61
2022/06/15 08:39:01;;;;;;;0.52;0.52;;;24.80;78.50;;;;;;5077400;28;20044;-62
2022/06/15 08:42:00;;;;;;;;;;;24.80;78.60;;;;;;5056760;28;20154;-59
2022/06/15 08:44:42;;;;;;;1.55;0.98;;;24.80;78.60;;;;;;5045812;28;20012;-61
2022/06/15 08:47:39;;;;;;;0.45;0.45;;;24.80;78.70;;;;;;5061472;28;20049;-62
2022/06/15 08:50:33;;;;;;;5.32;1.42;;;24.80;78.70;;;;;;5038312;28;20056;-62
2022/06/15 08:53:19;;;;;;;0.73;0.73;;;24.80;78.70;;;;;;5049237;28;20064;-61
2022/06/15 08:55:56;;;;;;;4.22;0.80;;;24.80;78.70;;;;;;5056372;28;20036;-63
2022/06/15 08:58:58;;;;;;;0.57;0.57;;;24.80;78.70;;;;;;5065470;28;20064;-58
2022/06/15 09:01:46;;;;;;;1.02;0.90;;;24.80;78.80;;;;;;5044629;28;20070;-61
2022/06/15 09:04:13;;;;;;;0.40;0.40;;;24.80;78.80;;;;;;5052342;28;20056;-55
2022/06/15 09:07:06;;;;;;;0.30;0.30;;;24.90;78.80;;;;;;5065416;28;20052;-57
2022/06/15 09:10:07;;;;;;;0.63;0.63;;;24.90;78.80;;;;;;5051209;28;20469;-58
2022/06/15 09:13:20;;;;;;;0.60;0.60;;;24.90;78.90;;;;;;5053488;28;20044;-58
2022/06/15 09:16:03;;;;;;;0.65;0.65;;;24.90;78.90;;;;;;5009184;28;20050;-59
2022/06/15 09:18:42;;;;;;;2.63;1.05;;;24.90;79.00;;;;;;5060671;28;20041;-58
2022/06/15 09:21:09;;;;;;;0.30;0.30;;;24.90;78.90;;;;;;5055317;28;20049;-64
2022/06/15 09:23:51;;;;;;;0.57;0.57;;;24.90;79.00;;;;;;5065718;28;20071;-60
2022/06/15 09:26:30;;;;;;;0.30;0.30;;;24.90;79.00;;;;;;5050058;28;20057;-62
2022/06/15 09:29:07;;;;;;;0.77;0.77;;;24.90;79.00;;;;;;5051880;28;20044;-60
2022/06/15 09:31:50;;;;;;;1.40;1.30;;;24.90;79.00;;;;;;5054145;28;20040;-61
2022/06/15 09:34:36;;;;;;;0.52;0.52;;;24.90;79.00;;;;;;5049712;28;20064;-61
2022/06/15 09:37:11;;;;;;;0.68;0.68;;;25.00;78.90;;;;;;5054032;28;20044;-60
2022/06/15 09:39:39;;;;;;;0.40;0.40;;;24.90;78.80;;;;;;5050696;28;20053;-62
2022/06/15 09:42:07;;;;;;;0.30;0.30;;;25.00;78.80;;;;;;5066052;28;20058;-60
2022/06/15 09:44:59;;;;;;;0.50;0.50;;;25.00;78.90;;;;;;5055652;28;20072;-61
2022/06/15 09:47:35;;;;;;;0.40;0.40;;;25.00;78.90;;;;;;5049727;28;20060;-59
2022/06/15 09:50:31;;;;;;;0.40;0.40;;;25.00;78.90;;;;;;5068323;28;20057;-60
2022/06/15 09:53:20;;;;;;;0.32;0.32;;;25.00;78.90;;;;;;5049111;28;20452;-59
2022/06/15 09:55:55;;;;;;;0.45;0.45;;;25.00;78.90;;;;;;5057662;28;20053;-63
2022/06/15 09:58:55;;;;;;;0.52;0.52;;;25.00;78.90;;;;;;5067220;28;20053;-60
2022/06/15 10:01:25;;;;;;;0.32;0.32;;;24.90;78.90;;;;;;5049498;28;20060;-59
2022/06/15 10:03:55;;;;;;;0.38;0.38;;;25.00;78.90;;;;;;5058713;28;20155;-57
2022/06/15 10:06:30;;;;;;;0.30;0.30;;;25.00;78.90;;;;;;5049038;28;20373;-58
2022/06/15 10:09:00;;;;;;;0.50;0.50;;;25.00;78.90;;;;;;5060920;28;20082;-61
2022/06/15 10:11:40;;;;;;;0.40;0.40;;;25.00;78.90;;;;;;5042138;28;20449;-62
2022/06/15 10:14:16;;;;;;;1.48;1.08;;;25.00;78.90;;;;;;5053019;28;20040;-60
2022/06/15 10:17:34;;;;;;;0.70;0.70;;;25.00;79.00;;;;;;5050214;28;20037;-61
2022/06/15 10:20:02;;;;;;;0.70;0.50;;;25.00;78.90;;;;;;5041405;28;20527;-60
2022/06/15 10:22:30;;;;;;;;;;;25.00;78.90;;;;;;5054068;28;20055;-60
2022/06/15 10:25:01;;;;;;;0.20;0.20;;;25.00;78.90;;;;;;5054295;28;20319;-60
2022/06/15 10:27:38;;;;;;;0.73;0.50;;;25.00;78.90;;;;;;5064141;28;20064;-61
2022/06/15 10:30:11;;;;;;;0.50;0.50;;;25.00;78.80;;;;;;5061722;28;20040;-60
2022/06/15 10:33:01;;;;;;;0.57;0.57;;;25.00;78.80;;;;;;5055097;28;20052;-61
2022/06/15 10:35:32;;;;;;;0.40;0.40;;;25.00;78.80;;;;;;5050406;28;20049;-58
2022/06/15 10:38:03;;;;;;;0.70;0.70;;;25.00;78.80;;;;;;5048833;28;20049;-61
2022/06/15 10:40:37;;;;;;;0.68;0.68;;;25.00;78.80;;;;;;5065924;28;20052;-57
2022/06/15 10:43:13;;;;;;;1.45;1.15;;;25.00;78.80;;;;;;5059121;28;20040;-60
2022/06/15 10:46:02;;;;;;;0.30;0.30;;;25.00;78.60;;;;;;5051362;28;20051;-55
2022/06/15 10:48:46;;;;;;;0.30;0.30;;;25.00;78.60;;;;;;5056342;28;20588;-60
2022/06/15 10:51:17;;;;;;;0.30;0.30;;;25.00;78.60;;;;;;5061874;28;20048;-56
2022/06/15 10:53:51;;;;;;;0.50;0.50;;;25.00;78.60;;;;;;5034962;28;20527;-61
2022/06/15 11:02:06;;;;;;;0.82;0.70;;;25.00;78.60;;;;;;5060941;28;20251;-60
2022/06/15 11:02:39;;;;;;;0.60;0.60;;;25.00;78.60;;;;;;5064743;28;20548;-58
2022/06/15 11:05:16;;;;;;;0.65;0.50;;;25.00;78.60;;;;;;5043929;28;20057;-58
2022/06/15 11:07:57;;;;;;;0.60;0.60;;;25.00;78.60;;;;;;5018293;28;20073;-60
2022/06/15 11:10:43;;;;;;;0.63;0.45;;;25.00;78.60;;;;;;5034651;28;20053;-67
2022/06/15 11:13:26;;;;;;;0.40;0.40;;;25.10;78.60;;;;;;5031604;28;20052;-62
2022/06/15 11:19:01;;;;;;;1.60;1.23;;;25.10;78.50;;;;;;5029044;28;20045;-60
2022/06/15 11:21:37;;;;;;;0.55;0.55;;;25.10;78.50;;;;;;5032113;28;20073;-58
2022/06/15 11:24:45;;;;;;;0.52;0.52;;;25.10;78.50;;;;;;5030748;28;20062;-59
2022/06/15 11:27:24;;;;;;;15.43;1.20;;;25.10;78.50;;;;;;5015647;28;20066;-54
2022/06/15 11:30:02;;;;;;;0.50;0.50;;;25.10;78.40;;;;;;5030457;28;20116;-58
2022/06/15 11:32:32;;;;;;;0.95;0.85;;;25.10;78.50;;;;;;5017905;28;20229;-56
2022/06/15 11:35:21;;;;;;;0.63;0.63;;;25.10;78.50;;;;;;5040555;28;20064;-58
2022/06/15 11:38:04;;;;;;;0.57;0.57;;;25.10;78.50;;;;;;5020983;28;20041;-63
2022/06/15 11:40:56;;;;;;;0.30;0.30;;;25.10;78.50;;;;;;5018749;28;20038;-57
2022/06/15 11:43:37;;;;;;;1.45;0.82;;;25.10;78.50;;;;;;5029177;28;20054;-57
2022/06/15 11:46:35;;;;;;;0.30;0.30;;;25.10;78.50;;;;;;5038010;28;20053;-61
2022/06/15 11:49:12;;;;;;;0.77;0.77;;;25.10;78.50;;;;;;5041015;28;20059;-61
2022/06/15 11:51:58;;;;;;;0.47;0.47;;;25.10;78.70;;;;;;5044512;28;20057;-62
2022/06/15 11:54:43;;;;;;;0.73;0.73;;;25.10;78.70;;;;;;5032866;28;21516;-59
2022/06/15 11:57:25;;;;;;;1.98;1.52;;;25.10;79.20;;;;;;5036098;28;20037;-64
2022/06/15 12:00:25;;;;;;;1.17;0.73;;;25.10;80.30;;;;;;5036158;28;20616;-63
2022/06/15 12:03:25;;;;;;;0.52;0.52;;;25.20;81.20;;;;;;5040291;28;20206;-63
2022/06/15 12:06:16;;;;;;;5.70;2.28;;;25.20;81.60;;;;;;5060910;28;20045;-64
2022/06/15 12:08:50;;;;;;;0.60;0.60;;;25.20;82.50;;;;;;5072024;28;20056;-61
2022/06/15 12:14:46;;;;;;;0.52;0.52;;;25.20;82.40;;;;;;5074499;28;20053;-52
2022/06/15 12:17:51;;;;;;;0.40;0.40;;;25.20;82.70;;;;;;5075009;28;20052;-59
2022/06/15 12:21:14;;;;;;;2.42;1.60;;;25.20;83.20;;;;;;5063365;28;20067;-62
2022/06/15 12:24:08;;;;;;;0.52;0.52;;;25.20;84.30;;;;;;5013084;28;20046;-64
2022/06/15 12:26:45;;;;;;;0.73;0.73;;;25.20;86.20;;;;;;5069835;28;20064;-56
2022/06/15 12:29:29;;;;;;;0.80;0.50;;;25.20;84.50;;;;;;5060828;28;20060;-58
2022/06/15 12:34:53;;;;;;;0.60;0.60;;;25.30;86.00;;;;;;5072215;28;20063;-58
2022/06/15 12:37:55;;;;;;;2.28;1.33;;;25.30;85.90;;;;;;5080129;28;20055;-56
2022/06/15 12:40:23;;;;;;;1.48;0.90;;;25.30;85.60;;;;;;5055303;28;20392;-56
2022/06/15 12:42:56;;;;;;;0.30;0.30;;;25.30;85.10;;;;;;5075056;28;20037;-58
2022/06/15 12:45:32;;;;;;;1.05;0.68;;;25.30;85.40;;;;;;5046578;28;20049;-57
2022/06/15 12:48:03;;;;;;;2.13;0.85;;;25.30;85.70;;;;;;5041506;28;20766;-56
2022/06/15 12:51:03;;;;;;;0.63;0.63;;;25.40;85.80;;;;;;5062515;28;20056;-61
2022/06/15 12:53:46;;;;;;;0.43;0.43;;;25.40;86.40;;;;;;5060598;28;20041;-59
2022/06/15 12:56:25;;;;;;;0.50;0.50;;;25.50;86.20;;;;;;5064087;28;20424;-58
2022/06/15 12:59:21;;;;;;;0.75;0.75;;;25.50;86.20;;;;;;5056386;28;20037;-57
2022/06/15 13:02:13;;;;;;;0.90;0.90;;;25.50;86.30;;;;;;5062906;28;20510;-58
2022/06/15 13:05:02;;;;;;;0.55;0.55;;;25.50;86.00;;;;;;5065951;28;20104;-59
2022/06/15 13:07:33;;;;;;;3.50;1.58;;;25.50;85.50;;;;;;5062430;28;20376;-58
2022/06/15 13:10:09;;;;;;;1.48;0.98;;;25.40;85.10;;;;;;5062546;28;20041;-58
2022/06/15 13:12:47;;;;;;;1.30;1.20;;;25.50;85.00;;;;;;5053997;28;20389;-58
2022/06/15 13:15:24;;;;;;;1.75;1.08;;;25.50;84.80;;;;;;5052519;28;20060;-57
2022/06/15 13:18:14;;;;;;;0.80;0.80;;;25.50;84.60;;;;;;5065495;28;20472;-58
2022/06/15 13:20:48;;;;;;;2.05;1.20;;;25.60;84.40;;;;;;5010820;28;20048;-58
2022/06/15 13:23:26;;;;;;;1.17;0.90;;;25.60;85.00;;;;;;5046881;28;20131;-57
2022/06/15 13:26:09;;;;;;;0.45;0.45;;;25.70;85.00;;;;;;5052408;28;20053;-61
2022/06/15 13:28:40;;;;;;;1.38;1.10;;;25.80;85.30;;;;;;5066877;28;20048;-59
2022/06/15 13:31:49;;;;;;;1.33;1.13;;;25.80;85.50;;;;;;5057986;28;20052;-59
2022/06/15 13:34:33;;;;;;;0.32;0.32;;;25.90;85.70;;;;;;5057997;28;20048;-58
2022/06/15 13:37:23;;;;;;;0.75;0.75;;;25.90;85.80;;;;;;5050088;28;20044;-59
2022/06/15 13:39:58;;;;;;;2.08;1.15;;;26.00;85.80;;;;;;5052581;28;20040;-55
2022/06/15 13:42:28;;;;;;;0.85;0.85;;;26.00;85.70;;;;;;5057340;28;20041;-57
2022/06/15 13:45:04;;;;;;;1.83;1.25;;;26.00;85.60;;;;;;5051089;28;20044;-57
2022/06/15 13:47:54;;;;;;;0.55;0.55;;;26.00;85.70;;;;;;5058986;28;20061;-55
2022/06/15 13:50:39;;;;;;;1.20;0.93;;;26.10;85.60;;;;;;5036130;28;20057;-57